9HGIG TBPB-TNCM
Flight info
| Callsign | 9HGIG |
|---|---|
| Flight time | 1h 0m |
| Altitude | 24000 |
| Route | SKB A517 PJM |
| Aircraft | A346/H-SDE2E3FGHIJ3J4J5M1RWXY/LB1D1 |
Departure
| Time | 2026-04-30 11:40 |
|---|---|
| Airport | Grantley Adams International Airport (TBPB) |
Arrival
| Time | 2026-04-30 12:40 |
|---|---|
| Airport | Princess Juliana International Airport (TNCM) |
| Time | Latitude | Longitude | Altitude | Speed | Heading |
|---|---|---|---|---|---|
| 2026-04-30 10:46 | 13.08093 | -59.48013 | 186 ft | 0 kts | 346° |
| 2026-04-30 11:26 | 13.08071 | -59.48007 | 193 ft | 4 kts | 346° |
| 2026-04-30 11:27 | 13.08045 | -59.48000 | 202 ft | 4 kts | 346° |
| 2026-04-30 11:27 | 13.08018 | -59.47993 | 202 ft | 4 kts | 346° |
| 2026-04-30 11:27 | 13.07998 | -59.47986 | 202 ft | 4 kts | 330° |
| 2026-04-30 11:27 | 13.07981 | -59.47972 | 202 ft | 4 kts | 301° |
| 2026-04-30 11:28 | 13.07975 | -59.47923 | 202 ft | 4 kts | 261° |
| 2026-04-30 11:28 | 13.07980 | -59.47897 | 202 ft | 2 kts | 256° |
| 2026-04-30 11:28 | 13.07980 | -59.47895 | 202 ft | 0 kts | 256° |
| 2026-04-30 11:31 | 13.07980 | -59.47896 | 202 ft | 0 kts | 256° |
| 2026-04-30 11:34 | 13.07978 | -59.47905 | 202 ft | 6 kts | 256° |
| 2026-04-30 11:34 | 13.07961 | -59.47974 | 202 ft | 12 kts | 256° |
| 2026-04-30 11:34 | 13.07936 | -59.48078 | 185 ft | 17 kts | 255° |
| 2026-04-30 11:34 | 13.07890 | -59.48262 | 182 ft | 37 kts | 256° |
| 2026-04-30 11:35 | 13.07836 | -59.48480 | 191 ft | 32 kts | 256° |
| 2026-04-30 11:35 | 13.07781 | -59.48707 | 187 ft | 33 kts | 252° |
| 2026-04-30 11:35 | 13.07704 | -59.48897 | 191 ft | 28 kts | 256° |
| 2026-04-30 11:35 | 13.07656 | -59.49099 | 187 ft | 31 kts | 256° |
| 2026-04-30 11:36 | 13.07601 | -59.49320 | 184 ft | 33 kts | 256° |
| 2026-04-30 11:36 | 13.07543 | -59.49557 | 189 ft | 35 kts | 256° |
| 2026-04-30 11:36 | 13.07484 | -59.49806 | 185 ft | 37 kts | 256° |
| 2026-04-30 11:36 | 13.07422 | -59.50063 | 188 ft | 35 kts | 256° |
| 2026-04-30 11:37 | 13.07365 | -59.50300 | 188 ft | 35 kts | 256° |
| 2026-04-30 11:37 | 13.07312 | -59.50512 | 186 ft | 28 kts | 256° |
| 2026-04-30 11:37 | 13.07280 | -59.50640 | 191 ft | 3 kts | 256° |
| 2026-04-30 11:37 | 13.07270 | -59.50678 | 182 ft | 8 kts | 255° |
| 2026-04-30 11:38 | 13.07227 | -59.50718 | 190 ft | 4 kts | 197° |
| 2026-04-30 11:38 | 13.07226 | -59.50718 | 193 ft | 0 kts | 197° |
| 2026-04-30 11:38 | 13.07196 | -59.50722 | 189 ft | 9 kts | 171° |
| 2026-04-30 11:38 | 13.07122 | -59.50701 | 182 ft | 11 kts | 145° |
| 2026-04-30 11:39 | 13.07115 | -59.50633 | 187 ft | 0 kts | 76° |
| 2026-04-30 11:39 | 13.07115 | -59.50632 | 187 ft | 0 kts | 76° |
| 2026-04-30 11:39 | 13.07131 | -59.50568 | 186 ft | 39 kts | 76° |
| 2026-04-30 11:39 | 13.07269 | -59.50004 | 184 ft | 120 kts | 76° |
| 2026-04-30 11:40 | 13.07507 | -59.48975 | 430 ft | 166 kts | 79° |
| 2026-04-30 11:40 | 13.07779 | -59.47800 | 1269 ft | 167 kts | 76° |
| 2026-04-30 11:40 | 13.08115 | -59.46674 | 2230 ft | 167 kts | 60° |
| 2026-04-30 11:40 | 13.08967 | -59.45840 | 2887 ft | 182 kts | 30° |
| 2026-04-30 11:41 | 13.10270 | -59.45590 | 3424 ft | 205 kts | 357° |
| 2026-04-30 11:41 | 13.11621 | -59.46227 | 4008 ft | 231 kts | 319° |
| 2026-04-30 11:41 | 13.12389 | -59.47755 | 4573 ft | 259 kts | 279° |
| 2026-04-30 11:41 | 13.12316 | -59.49679 | 5283 ft | 278 kts | 267° |
| 2026-04-30 11:42 | 13.12576 | -59.51687 | 6178 ft | 282 kts | 296° |
| 2026-04-30 11:42 | 13.13821 | -59.53172 | 7224 ft | 279 kts | 327° |
| 2026-04-30 11:42 | 13.15532 | -59.54146 | 8233 ft | 283 kts | 334° |
| 2026-04-30 11:42 | 13.17308 | -59.55105 | 9118 ft | 292 kts | 332° |
| 2026-04-30 11:43 | 13.19087 | -59.56166 | 10010 ft | 299 kts | 329° |
| 2026-04-30 11:43 | 13.20885 | -59.57335 | 10733 ft | 313 kts | 328° |
| 2026-04-30 11:43 | 13.22720 | -59.58600 | 11282 ft | 331 kts | 327° |
| 2026-04-30 11:43 | 13.24750 | -59.60054 | 11883 ft | 350 kts | 326° |
| 2026-04-30 11:44 | 13.26792 | -59.61552 | 12459 ft | 369 kts | 326° |
| 2026-04-30 11:44 | 13.28930 | -59.63137 | 13023 ft | 387 kts | 325° |
| 2026-04-30 11:44 | 13.31145 | -59.64795 | 13735 ft | 399 kts | 325° |
| 2026-04-30 11:44 | 13.33372 | -59.66467 | 14559 ft | 403 kts | 324° |
| 2026-04-30 11:45 | 13.35654 | -59.68183 | 15447 ft | 407 kts | 324° |
| 2026-04-30 11:45 | 13.37954 | -59.69913 | 16277 ft | 412 kts | 324° |
| 2026-04-30 11:45 | 13.40282 | -59.71667 | 17124 ft | 417 kts | 324° |
| 2026-04-30 11:45 | 13.42640 | -59.73445 | 17904 ft | 422 kts | 323° |
| 2026-04-30 11:46 | 13.45026 | -59.75244 | 18598 ft | 428 kts | 323° |
| 2026-04-30 11:46 | 13.47440 | -59.77066 | 19262 ft | 432 kts | 323° |
| 2026-04-30 11:46 | 13.49849 | -59.78885 | 19938 ft | 436 kts | 323° |
| 2026-04-30 11:46 | 13.52305 | -59.80739 | 20651 ft | 439 kts | 323° |
| 2026-04-30 11:47 | 13.54781 | -59.82609 | 21329 ft | 443 kts | 322° |
| 2026-04-30 11:47 | 13.57283 | -59.84499 | 22016 ft | 447 kts | 322° |
| 2026-04-30 11:47 | 13.59810 | -59.86409 | 22696 ft | 451 kts | 322° |
| 2026-04-30 11:47 | 13.62358 | -59.88335 | 23364 ft | 455 kts | 322° |
| 2026-04-30 11:48 | 13.64922 | -59.90269 | 23792 ft | 457 kts | 322° |
| 2026-04-30 11:48 | 13.67455 | -59.92186 | 23959 ft | 457 kts | 322° |
| 2026-04-30 11:48 | 13.70018 | -59.94126 | 23964 ft | 456 kts | 322° |
| 2026-04-30 11:48 | 13.72580 | -59.96067 | 23979 ft | 456 kts | 322° |
| 2026-04-30 11:49 | 13.75140 | -59.98005 | 23982 ft | 456 kts | 322° |
| 2026-04-30 11:49 | 13.77701 | -59.99944 | 23983 ft | 456 kts | 322° |
| 2026-04-30 11:49 | 13.80264 | -60.01885 | 23983 ft | 456 kts | 322° |
| 2026-04-30 11:49 | 13.82823 | -60.03824 | 23983 ft | 456 kts | 322° |
| 2026-04-30 11:50 | 13.85351 | -60.05739 | 23981 ft | 456 kts | 322° |
| 2026-04-30 11:50 | 13.87912 | -60.07680 | 23980 ft | 456 kts | 322° |
| 2026-04-30 11:50 | 13.90472 | -60.09620 | 23980 ft | 456 kts | 322° |
| 2026-04-30 11:50 | 13.93037 | -60.11565 | 23980 ft | 456 kts | 322° |
| 2026-04-30 11:51 | 13.95596 | -60.13505 | 23981 ft | 456 kts | 322° |
| 2026-04-30 11:51 | 13.98124 | -60.15422 | 23983 ft | 455 kts | 322° |
| 2026-04-30 11:51 | 14.00675 | -60.17357 | 23980 ft | 454 kts | 321° |
| 2026-04-30 11:51 | 14.03224 | -60.19292 | 23979 ft | 454 kts | 321° |
| 2026-04-30 11:52 | 14.05771 | -60.21225 | 23978 ft | 454 kts | 321° |
| 2026-04-30 11:52 | 14.08322 | -60.23164 | 23978 ft | 454 kts | 321° |
| 2026-04-30 11:52 | 14.10837 | -60.25075 | 23978 ft | 454 kts | 321° |
| 2026-04-30 11:52 | 14.13393 | -60.27017 | 23978 ft | 454 kts | 321° |
| 2026-04-30 11:53 | 14.15943 | -60.28955 | 23973 ft | 454 kts | 321° |
| 2026-04-30 11:53 | 14.18494 | -60.30895 | 23974 ft | 454 kts | 321° |
| 2026-04-30 11:53 | 14.21009 | -60.32808 | 23975 ft | 454 kts | 321° |
| 2026-04-30 11:53 | 14.23563 | -60.34751 | 23975 ft | 454 kts | 321° |
| 2026-04-30 11:54 | 14.26111 | -60.36690 | 23978 ft | 454 kts | 321° |
| 2026-04-30 11:54 | 14.28658 | -60.38628 | 23978 ft | 454 kts | 321° |
| 2026-04-30 11:54 | 14.31200 | -60.40564 | 23975 ft | 454 kts | 321° |
| 2026-04-30 11:54 | 14.33713 | -60.42476 | 23974 ft | 453 kts | 321° |
| 2026-04-30 11:55 | 14.36255 | -60.44413 | 23976 ft | 453 kts | 321° |
| 2026-04-30 11:55 | 14.38793 | -60.46347 | 23976 ft | 453 kts | 321° |
| 2026-04-30 11:55 | 14.41330 | -60.48282 | 23975 ft | 453 kts | 321° |
| 2026-04-30 11:55 | 14.43871 | -60.50220 | 23975 ft | 453 kts | 321° |
| 2026-04-30 11:56 | 14.46404 | -60.52152 | 23968 ft | 453 kts | 321° |
| 2026-04-30 11:56 | 14.48917 | -60.54069 | 23969 ft | 453 kts | 321° |
| 2026-04-30 11:56 | 14.51457 | -60.56008 | 23969 ft | 453 kts | 321° |
| 2026-04-30 11:56 | 14.53996 | -60.57945 | 23970 ft | 453 kts | 321° |
| 2026-04-30 11:57 | 14.56530 | -60.59881 | 23970 ft | 453 kts | 321° |
| 2026-04-30 11:57 | 14.59069 | -60.61820 | 23970 ft | 453 kts | 321° |
| 2026-04-30 11:57 | 14.61580 | -60.63738 | 23967 ft | 453 kts | 321° |
| 2026-04-30 11:57 | 14.64122 | -60.65681 | 23968 ft | 453 kts | 321° |
| 2026-04-30 11:58 | 14.66656 | -60.67618 | 23973 ft | 453 kts | 321° |
| 2026-04-30 11:58 | 14.69195 | -60.69558 | 23971 ft | 453 kts | 321° |
| 2026-04-30 11:58 | 14.71738 | -60.71504 | 23970 ft | 453 kts | 321° |
| 2026-04-30 11:58 | 14.74238 | -60.73417 | 23973 ft | 453 kts | 321° |
| 2026-04-30 11:59 | 14.76771 | -60.75356 | 23978 ft | 452 kts | 321° |
| 2026-04-30 11:59 | 14.79302 | -60.77294 | 23976 ft | 452 kts | 321° |
| 2026-04-30 11:59 | 14.81838 | -60.79236 | 23976 ft | 452 kts | 321° |
| 2026-04-30 11:59 | 14.84380 | -60.81183 | 23975 ft | 452 kts | 321° |
| 2026-04-30 12:00 | 14.86906 | -60.83119 | 23987 ft | 452 kts | 321° |
| 2026-04-30 12:00 | 14.89437 | -60.85060 | 23988 ft | 452 kts | 321° |
| 2026-04-30 12:00 | 14.91972 | -60.87004 | 23988 ft | 453 kts | 321° |
| 2026-04-30 12:00 | 14.94474 | -60.88923 | 23989 ft | 453 kts | 321° |
| 2026-04-30 12:01 | 14.97009 | -60.90868 | 23988 ft | 453 kts | 321° |
| 2026-04-30 12:01 | 14.99548 | -60.92817 | 23987 ft | 453 kts | 321° |
| 2026-04-30 12:01 | 15.02076 | -60.94756 | 23995 ft | 452 kts | 321° |
| 2026-04-30 12:01 | 15.04602 | -60.96695 | 23993 ft | 452 kts | 321° |
| 2026-04-30 12:02 | 15.07105 | -60.98620 | 23992 ft | 451 kts | 320° |
| 2026-04-30 12:02 | 15.09629 | -61.00561 | 23992 ft | 452 kts | 321° |
| 2026-04-30 12:02 | 15.12152 | -61.02503 | 23992 ft | 451 kts | 321° |
| 2026-04-30 12:02 | 15.14678 | -61.04446 | 23989 ft | 451 kts | 320° |
| 2026-04-30 12:03 | 15.17206 | -61.06388 | 23991 ft | 451 kts | 320° |
| 2026-04-30 12:03 | 15.22226 | -61.10252 | 23991 ft | 451 kts | 320° |
| 2026-04-30 12:03 | 15.24749 | -61.12195 | 23991 ft | 451 kts | 320° |
| 2026-04-30 12:04 | 15.27277 | -61.14142 | 23990 ft | 451 kts | 320° |
| 2026-04-30 12:04 | 15.29800 | -61.16086 | 23994 ft | 451 kts | 320° |
| 2026-04-30 12:04 | 15.32288 | -61.18003 | 23994 ft | 451 kts | 320° |
| 2026-04-30 12:04 | 15.34813 | -61.19949 | 23994 ft | 451 kts | 320° |
| 2026-04-30 12:05 | 15.37333 | -61.21889 | 23998 ft | 450 kts | 320° |
| 2026-04-30 12:05 | 15.39848 | -61.23828 | 23996 ft | 449 kts | 320° |
| 2026-04-30 12:05 | 15.42362 | -61.25767 | 23993 ft | 450 kts | 320° |
| 2026-04-30 12:05 | 15.44885 | -61.27715 | 23993 ft | 449 kts | 320° |
| 2026-04-30 12:06 | 15.47393 | -61.29653 | 23986 ft | 449 kts | 320° |
| 2026-04-30 12:06 | 15.49875 | -61.31569 | 23983 ft | 449 kts | 320° |
| 2026-04-30 12:06 | 15.52378 | -61.33503 | 23974 ft | 448 kts | 320° |
| 2026-04-30 12:06 | 15.54886 | -61.35440 | 23984 ft | 448 kts | 320° |
| 2026-04-30 12:07 | 15.57393 | -61.37377 | 23986 ft | 448 kts | 320° |
| 2026-04-30 12:07 | 15.59896 | -61.39313 | 23986 ft | 448 kts | 320° |
| 2026-04-30 12:07 | 15.62396 | -61.41247 | 23977 ft | 448 kts | 320° |
| 2026-04-30 12:07 | 15.64867 | -61.43158 | 23982 ft | 448 kts | 320° |
| 2026-04-30 12:08 | 15.67370 | -61.45096 | 23987 ft | 448 kts | 320° |
| 2026-04-30 12:08 | 15.69876 | -61.47035 | 23987 ft | 448 kts | 320° |
| 2026-04-30 12:08 | 15.72376 | -61.48966 | 23992 ft | 447 kts | 320° |
| 2026-04-30 12:08 | 15.74874 | -61.50898 | 23992 ft | 446 kts | 320° |
| 2026-04-30 12:09 | 15.77334 | -61.52804 | 23992 ft | 446 kts | 320° |
| 2026-04-30 12:09 | 15.79820 | -61.54731 | 23993 ft | 446 kts | 320° |
| 2026-04-30 12:09 | 15.82315 | -61.56665 | 23994 ft | 446 kts | 320° |
| 2026-04-30 12:09 | 15.84802 | -61.58594 | 23997 ft | 446 kts | 320° |
| 2026-04-30 12:10 | 15.87292 | -61.60526 | 23997 ft | 446 kts | 320° |
| 2026-04-30 12:10 | 15.89794 | -61.62468 | 23997 ft | 446 kts | 320° |
| 2026-04-30 12:10 | 15.92251 | -61.64375 | 23997 ft | 446 kts | 320° |
| 2026-04-30 12:10 | 15.94739 | -61.66307 | 23997 ft | 446 kts | 320° |
| 2026-04-30 12:11 | 15.97231 | -61.68243 | 23988 ft | 446 kts | 320° |
| 2026-04-30 12:11 | 15.99718 | -61.70176 | 23983 ft | 446 kts | 320° |
| 2026-04-30 12:11 | 16.01372 | -61.71461 | 23983 ft | 446 kts | 320° |
| 2026-04-30 12:11 | 16.03859 | -61.73394 | 23984 ft | 446 kts | 320° |
| 2026-04-30 12:12 | 16.06352 | -61.75333 | 23987 ft | 446 kts | 320° |
| 2026-04-30 12:12 | 16.08840 | -61.77269 | 23985 ft | 446 kts | 320° |
| 2026-04-30 12:12 | 16.11350 | -61.79222 | 23986 ft | 446 kts | 320° |
| 2026-04-30 12:12 | 16.13807 | -61.81135 | 23977 ft | 446 kts | 320° |
| 2026-04-30 12:13 | 16.16298 | -61.83074 | 23982 ft | 446 kts | 320° |
| 2026-04-30 12:13 | 16.18785 | -61.85011 | 23983 ft | 446 kts | 320° |
| 2026-04-30 12:13 | 16.21268 | -61.86946 | 23983 ft | 446 kts | 320° |
| 2026-04-30 12:13 | 16.23769 | -61.88895 | 23984 ft | 446 kts | 320° |
| 2026-04-30 12:14 | 16.26252 | -61.90831 | 23983 ft | 446 kts | 319° |
| 2026-04-30 12:14 | 16.28737 | -61.92769 | 23991 ft | 446 kts | 320° |
| 2026-04-30 12:14 | 16.31195 | -61.94687 | 23991 ft | 446 kts | 319° |
| 2026-04-30 12:14 | 16.33680 | -61.96626 | 23990 ft | 446 kts | 319° |
| 2026-04-30 12:15 | 16.36165 | -61.98566 | 23990 ft | 446 kts | 319° |
| 2026-04-30 12:15 | 16.38668 | -62.00520 | 23990 ft | 446 kts | 319° |
| 2026-04-30 12:15 | 16.41153 | -62.02461 | 23993 ft | 445 kts | 319° |
| 2026-04-30 12:15 | 16.43634 | -62.04399 | 23991 ft | 445 kts | 319° |
| 2026-04-30 12:16 | 16.46114 | -62.06337 | 23992 ft | 445 kts | 319° |
| 2026-04-30 12:16 | 16.48566 | -62.08256 | 23991 ft | 445 kts | 319° |
| 2026-04-30 12:16 | 16.51044 | -62.10195 | 23990 ft | 445 kts | 319° |
| 2026-04-30 12:16 | 16.53522 | -62.12134 | 23987 ft | 445 kts | 319° |
| 2026-04-30 12:17 | 16.58482 | -62.16018 | 23986 ft | 445 kts | 319° |
| 2026-04-30 12:17 | 16.60957 | -62.17956 | 23985 ft | 445 kts | 319° |
| 2026-04-30 12:17 | 16.63433 | -62.19896 | 23986 ft | 445 kts | 319° |
| 2026-04-30 12:18 | 16.65879 | -62.21813 | 23983 ft | 445 kts | 319° |
| 2026-04-30 12:18 | 16.68362 | -62.23759 | 23982 ft | 444 kts | 319° |
| 2026-04-30 12:18 | 16.70842 | -62.25704 | 23984 ft | 444 kts | 319° |
| 2026-04-30 12:18 | 16.73313 | -62.27643 | 23985 ft | 444 kts | 319° |
| 2026-04-30 12:19 | 16.75781 | -62.29580 | 23995 ft | 444 kts | 319° |
| 2026-04-30 12:19 | 16.78224 | -62.31495 | 23989 ft | 443 kts | 319° |
| 2026-04-30 12:19 | 16.80688 | -62.33430 | 23987 ft | 443 kts | 319° |
| 2026-04-30 12:19 | 16.83161 | -62.35374 | 23988 ft | 443 kts | 319° |
| 2026-04-30 12:20 | 16.85632 | -62.37316 | 23988 ft | 443 kts | 319° |
| 2026-04-30 12:20 | 16.88064 | -62.39229 | 23937 ft | 443 kts | 319° |
| 2026-04-30 12:20 | 16.90526 | -62.41164 | 23647 ft | 441 kts | 319° |
| 2026-04-30 12:20 | 16.92964 | -62.43082 | 23179 ft | 437 kts | 319° |
| 2026-04-30 12:21 | 16.95393 | -62.44993 | 22696 ft | 434 kts | 319° |
| 2026-04-30 12:21 | 16.97802 | -62.46890 | 22221 ft | 430 kts | 319° |
| 2026-04-30 12:21 | 17.00190 | -62.48771 | 21741 ft | 427 kts | 319° |
| 2026-04-30 12:21 | 17.02551 | -62.50631 | 21271 ft | 423 kts | 319° |
| 2026-04-30 12:22 | 17.04873 | -62.52460 | 20803 ft | 420 kts | 320° |
| 2026-04-30 12:22 | 17.07206 | -62.54298 | 20314 ft | 417 kts | 320° |
| 2026-04-30 12:22 | 17.09516 | -62.56120 | 19845 ft | 413 kts | 320° |
| 2026-04-30 12:22 | 17.11802 | -62.57921 | 19386 ft | 410 kts | 320° |
| 2026-04-30 12:23 | 17.14071 | -62.59711 | 18923 ft | 406 kts | 320° |
| 2026-04-30 12:23 | 17.16320 | -62.61486 | 18453 ft | 403 kts | 320° |
| 2026-04-30 12:23 | 17.18553 | -62.63250 | 17950 ft | 400 kts | 320° |
| 2026-04-30 12:23 | 17.20771 | -62.65002 | 17453 ft | 397 kts | 320° |
| 2026-04-30 12:24 | 17.22970 | -62.66738 | 16980 ft | 393 kts | 320° |
| 2026-04-30 12:24 | 17.25115 | -62.68432 | 16544 ft | 389 kts | 321° |
| 2026-04-30 12:24 | 17.27269 | -62.70134 | 16094 ft | 386 kts | 321° |
| 2026-04-30 12:24 | 17.29408 | -62.71817 | 15659 ft | 383 kts | 322° |
| 2026-04-30 12:25 | 17.31602 | -62.73390 | 15227 ft | 380 kts | 325° |
| 2026-04-30 12:25 | 17.33854 | -62.74844 | 14802 ft | 378 kts | 327° |
| 2026-04-30 12:25 | 17.36102 | -62.76260 | 14350 ft | 375 kts | 327° |
| 2026-04-30 12:25 | 17.38333 | -62.77661 | 13938 ft | 372 kts | 327° |
| 2026-04-30 12:26 | 17.40551 | -62.79056 | 13461 ft | 370 kts | 328° |
| 2026-04-30 12:26 | 17.42721 | -62.80424 | 13021 ft | 366 kts | 327° |
| 2026-04-30 12:26 | 17.44897 | -62.81807 | 12564 ft | 363 kts | 326° |
| 2026-04-30 12:26 | 17.47002 | -62.83327 | 12139 ft | 358 kts | 322° |
| 2026-04-30 12:27 | 17.48907 | -62.84961 | 11665 ft | 356 kts | 317° |
| 2026-04-30 12:27 | 17.50716 | -62.86743 | 11148 ft | 355 kts | 315° |
| 2026-04-30 12:27 | 17.52484 | -62.88523 | 10852 ft | 346 kts | 315° |
| 2026-04-30 12:27 | 17.54193 | -62.90250 | 10674 ft | 333 kts | 316° |
| 2026-04-30 12:28 | 17.55834 | -62.91906 | 10530 ft | 321 kts | 315° |
| 2026-04-30 12:28 | 17.57397 | -62.93481 | 10379 ft | 310 kts | 316° |
| 2026-04-30 12:28 | 17.58927 | -62.95024 | 10241 ft | 298 kts | 316° |
| 2026-04-30 12:28 | 17.60398 | -62.96506 | 10127 ft | 288 kts | 316° |
| 2026-04-30 12:29 | 17.61823 | -62.97940 | 10018 ft | 280 kts | 316° |
| 2026-04-30 12:29 | 17.63228 | -62.99355 | 9776 ft | 280 kts | 316° |
| 2026-04-30 12:29 | 17.64639 | -63.00778 | 9411 ft | 280 kts | 316° |
| 2026-04-30 12:29 | 17.66031 | -63.02182 | 9093 ft | 280 kts | 316° |
| 2026-04-30 12:30 | 17.67437 | -63.03601 | 8772 ft | 279 kts | 316° |
| 2026-04-30 12:30 | 17.68838 | -63.05014 | 8474 ft | 279 kts | 317° |
| 2026-04-30 12:30 | 17.70233 | -63.06424 | 8158 ft | 278 kts | 317° |
| 2026-04-30 12:30 | 17.71627 | -63.07831 | 7856 ft | 277 kts | 316° |
| 2026-04-30 12:31 | 17.73016 | -63.09233 | 7554 ft | 277 kts | 317° |
| 2026-04-30 12:31 | 17.74388 | -63.10621 | 7249 ft | 276 kts | 316° |
| 2026-04-30 12:31 | 17.75776 | -63.12024 | 6966 ft | 276 kts | 316° |
| 2026-04-30 12:31 | 17.77154 | -63.13424 | 6671 ft | 275 kts | 317° |
| 2026-04-30 12:32 | 17.78537 | -63.14822 | 6360 ft | 275 kts | 317° |
| 2026-04-30 12:32 | 17.79913 | -63.16215 | 6052 ft | 274 kts | 317° |
| 2026-04-30 12:32 | 17.81270 | -63.17584 | 5752 ft | 273 kts | 317° |
| 2026-04-30 12:32 | 17.82640 | -63.18964 | 5462 ft | 272 kts | 317° |
| 2026-04-30 12:33 | 17.84002 | -63.20346 | 5152 ft | 271 kts | 317° |
| 2026-04-30 12:33 | 17.85357 | -63.21719 | 4872 ft | 270 kts | 317° |
| 2026-04-30 12:33 | 17.86709 | -63.23088 | 4554 ft | 268 kts | 317° |
| 2026-04-30 12:33 | 17.88051 | -63.24450 | 4273 ft | 268 kts | 317° |
| 2026-04-30 12:34 | 17.89395 | -63.25810 | 3978 ft | 268 kts | 317° |
| 2026-04-30 12:34 | 17.90751 | -63.27157 | 3673 ft | 268 kts | 322° |
| 2026-04-30 12:34 | 17.92344 | -63.28060 | 3472 ft | 259 kts | 345° |
| 2026-04-30 12:34 | 17.94061 | -63.28415 | 3460 ft | 243 kts | 353° |
| 2026-04-30 12:35 | 17.95706 | -63.28661 | 3455 ft | 228 kts | 354° |
| 2026-04-30 12:35 | 17.97234 | -63.28883 | 3442 ft | 215 kts | 355° |
| 2026-04-30 12:35 | 17.98677 | -63.29096 | 3422 ft | 205 kts | 354° |
| 2026-04-30 12:35 | 18.00094 | -63.29300 | 3358 ft | 202 kts | 360° |
| 2026-04-30 12:36 | 18.01364 | -63.28948 | 3178 ft | 188 kts | 43° |
| 2026-04-30 12:36 | 18.01922 | -63.27800 | 2993 ft | 175 kts | 82° |
| 2026-04-30 12:36 | 18.02051 | -63.26547 | 2754 ft | 169 kts | 87° |
| 2026-04-30 12:36 | 18.02155 | -63.25340 | 2518 ft | 162 kts | 86° |
| 2026-04-30 12:37 | 18.02274 | -63.24177 | 2301 ft | 159 kts | 86° |
| 2026-04-30 12:37 | 18.02407 | -63.23064 | 2101 ft | 148 kts | 85° |
| 2026-04-30 12:37 | 18.02541 | -63.22031 | 1891 ft | 139 kts | 85° |
| 2026-04-30 12:37 | 18.02674 | -63.21024 | 1732 ft | 138 kts | 84° |
| 2026-04-30 12:38 | 18.02814 | -63.20033 | 1564 ft | 138 kts | 85° |
| 2026-04-30 12:38 | 18.02956 | -63.19035 | 1377 ft | 137 kts | 84° |
| 2026-04-30 12:38 | 18.03092 | -63.18043 | 1210 ft | 137 kts | 84° |
| 2026-04-30 12:38 | 18.03233 | -63.17051 | 1009 ft | 136 kts | 83° |
| 2026-04-30 12:39 | 18.03368 | -63.16076 | 859 ft | 137 kts | 83° |
| 2026-04-30 12:39 | 18.03516 | -63.15031 | 629 ft | 136 kts | 82° |
| 2026-04-30 12:39 | 18.03660 | -63.14029 | 455 ft | 136 kts | 82° |
| 2026-04-30 12:39 | 18.03781 | -63.13042 | 301 ft | 134 kts | 82° |
| 2026-04-30 12:40 | 18.03920 | -63.12088 | 110 ft | 133 kts | 83° |
| 2026-04-30 12:40 | 18.04047 | -63.11169 | 37 ft | 94 kts | 81° |
| 2026-04-30 12:40 | 18.04107 | -63.10783 | 36 ft | 38 kts | 82° |
| 2026-04-30 12:40 | 18.04146 | -63.10511 | 36 ft | 37 kts | 81° |
| 2026-04-30 12:41 | 18.04184 | -63.10248 | 36 ft | 31 kts | 82° |
| 2026-04-30 12:41 | 18.04206 | -63.10093 | 36 ft | 22 kts | 82° |
| 2026-04-30 12:41 | 18.04253 | -63.09939 | 36 ft | 19 kts | 52° |
| 2026-04-30 12:41 | 18.04265 | -63.09851 | 36 ft | 10 kts | 175° |
| 2026-04-30 12:42 | 18.04230 | -63.09923 | 36 ft | 15 kts | 263° |
| 2026-04-30 12:42 | 18.04214 | -63.10051 | 36 ft | 20 kts | 263° |
| 2026-04-30 12:42 | 18.04190 | -63.10216 | 36 ft | 24 kts | 261° |
| 2026-04-30 12:42 | 18.04162 | -63.10402 | 36 ft | 27 kts | 261° |
| 2026-04-30 12:43 | 18.04131 | -63.10614 | 36 ft | 30 kts | 261° |
| 2026-04-30 12:43 | 18.04102 | -63.10844 | 36 ft | 33 kts | 263° |
| 2026-04-30 12:43 | 18.04069 | -63.11062 | 36 ft | 25 kts | 261° |
| 2026-04-30 12:43 | 18.04048 | -63.11214 | 36 ft | 9 kts | 266° |
| 2026-04-30 12:44 | 18.04081 | -63.11280 | 35 ft | 14 kts | 328° |
| 2026-04-30 12:44 | 18.04137 | -63.11299 | 37 ft | 7 kts | 351° |
| 2026-04-30 12:44 | 18.04200 | -63.11310 | 37 ft | 11 kts | 345° |
| 2026-04-30 12:44 | 18.04252 | -63.11340 | 37 ft | 0 kts | 329° |
| 2026-04-30 12:45 | 18.04264 | -63.11349 | 37 ft | 4 kts | 325° |
| 2026-04-30 12:45 | 18.04298 | -63.11359 | 37 ft | 2 kts | 351° |
| 2026-04-30 12:45 | 18.04308 | -63.11361 | 37 ft | 1 kts | 351° |
| 2026-04-30 12:45 | 18.04314 | -63.11361 | 37 ft | 1 kts | 351° |
| 2026-04-30 12:46 | 18.04317 | -63.11362 | 37 ft | 0 kts | 351° |
| 2026-04-30 13:13 | 18.04281 | -63.11354 | 35 ft | 3 kts | 352° |
| 2026-04-30 13:13 | 18.04258 | -63.11354 | 34 ft | 4 kts | 17° |
| 2026-04-30 13:13 | 18.04236 | -63.11383 | 35 ft | 4 kts | 81° |
| 2026-04-30 13:14 | 18.04233 | -63.11407 | 34 ft | 1 kts | 81° |
| 2026-04-30 13:18 | 18.04225 | -63.11340 | 33 ft | 9 kts | 118° |
| 2026-04-30 13:18 | 18.04180 | -63.11308 | 37 ft | 4 kts | 166° |
| 2026-04-30 13:19 | 18.04138 | -63.11299 | 36 ft | 8 kts | 169° |
| 2026-04-30 13:19 | 18.04136 | -63.11299 | 36 ft | 0 kts | 169° |
| 2026-04-30 13:22 | 18.04132 | -63.11298 | 36 ft | 2 kts | 169° |
| 2026-04-30 13:22 | 18.04040 | -63.11307 | 36 ft | 10 kts | 229° |
| 2026-04-30 13:23 | 18.04021 | -63.11393 | 36 ft | 14 kts | 261° |
| 2026-04-30 13:23 | 18.03982 | -63.11663 | 36 ft | 22 kts | 261° |
| 2026-04-30 13:24 | 18.03992 | -63.11931 | 36 ft | 11 kts | 266° |
| 2026-04-30 13:24 | 18.03947 | -63.11904 | 36 ft | 3 kts | 79° |
| 2026-04-30 13:25 | 18.03949 | -63.11891 | 36 ft | 0 kts | 81° |
| 2026-04-30 13:25 | 18.04101 | -63.10846 | 46 ft | 166 kts | 81° |
| 2026-04-30 13:26 | 18.03173 | -63.07238 | 3251 ft | 199 kts | 156° |
| 2026-04-30 13:26 | 18.00207 | -63.07213 | 4755 ft | 232 kts | 184° |
| 2026-04-30 13:27 | 17.96722 | -63.07537 | 6043 ft | 272 kts | 183° |
| 2026-04-30 13:28 | 17.90813 | -63.07972 | 9100 ft | 288 kts | 184° |
| 2026-04-30 13:28 | 17.86728 | -63.08288 | 10865 ft | 305 kts | 191° |
| 2026-04-30 13:28 | 17.84697 | -63.09073 | 11394 ft | 321 kts | 212° |
| 2026-04-30 13:29 | 17.81920 | -63.12897 | 12374 ft | 356 kts | 255° |
| 2026-04-30 13:29 | 17.82631 | -63.18149 | 13373 ft | 391 kts | 301° |
| 2026-04-30 13:30 | 17.89963 | -63.21651 | 15902 ft | 411 kts | 348° |
| 2026-04-30 13:31 | 17.94732 | -63.24639 | 17274 ft | 410 kts | 304° |
| 2026-04-30 13:31 | 17.98406 | -63.32792 | 19493 ft | 417 kts | 290° |
| 2026-04-30 13:32 | 18.00759 | -63.38421 | 20855 ft | 424 kts | 291° |
| 2026-04-30 13:32 | 18.03207 | -63.44085 | 22193 ft | 430 kts | 291° |
| 2026-04-30 13:33 | 18.05726 | -63.49851 | 23480 ft | 436 kts | 291° |
| 2026-04-30 13:33 | 18.08284 | -63.55700 | 24561 ft | 442 kts | 291° |
| 2026-04-30 13:34 | 18.09570 | -63.58643 | 25139 ft | 443 kts | 291° |
| 2026-04-30 13:34 | 18.12973 | -63.67679 | 26917 ft | 445 kts | 284° |
| 2026-04-30 13:35 | 18.13729 | -63.70844 | 27504 ft | 446 kts | 280° |
| 2026-04-30 13:35 | 18.14876 | -63.77302 | 28649 ft | 450 kts | 279° |
| 2026-04-30 13:36 | 18.15975 | -63.83752 | 30229 ft | 444 kts | 279° |
| 2026-04-30 13:36 | 18.16514 | -63.86931 | 31085 ft | 437 kts | 279° |
| 2026-04-30 13:36 | 18.17572 | -63.93182 | 32779 ft | 426 kts | 279° |
| 2026-04-30 13:37 | 18.18086 | -63.96238 | 33630 ft | 421 kts | 279° |
| 2026-04-30 13:37 | 18.19109 | -64.02327 | 35150 ft | 412 kts | 278° |
| 2026-04-30 13:38 | 18.20091 | -64.08182 | 36514 ft | 404 kts | 278° |
| 2026-04-30 13:38 | 18.20578 | -64.11103 | 37174 ft | 401 kts | 277° |
| 2026-04-30 13:38 | 18.21537 | -64.16860 | 38363 ft | 396 kts | 277° |
| 2026-04-30 13:39 | 18.22479 | -64.22541 | 39127 ft | 397 kts | 277° |
| 2026-04-30 13:39 | 18.23433 | -64.28318 | 39622 ft | 402 kts | 277° |
| 2026-04-30 13:40 | 18.23917 | -64.31239 | 39875 ft | 404 kts | 277° |
| 2026-04-30 13:40 | 18.24885 | -64.37076 | 39948 ft | 407 kts | 277° |
| 2026-04-30 13:41 | 18.25862 | -64.42972 | 39956 ft | 408 kts | 277° |
| 2026-04-30 13:41 | 18.26834 | -64.48862 | 39961 ft | 408 kts | 277° |
| 2026-04-30 13:42 | 18.27806 | -64.54760 | 39955 ft | 408 kts | 277° |
| 2026-04-30 13:42 | 18.29256 | -64.63583 | 39988 ft | 408 kts | 277° |
| 2026-04-30 13:43 | 18.30222 | -64.69483 | 39969 ft | 408 kts | 277° |
| 2026-04-30 13:43 | 18.31200 | -64.75468 | 39976 ft | 408 kts | 277° |
| 2026-04-30 13:44 | 18.32164 | -64.81372 | 39983 ft | 408 kts | 277° |
| 2026-04-30 13:44 | 18.33120 | -64.87237 | 39984 ft | 408 kts | 277° |
| 2026-04-30 13:45 | 18.34765 | -64.96070 | 39994 ft | 411 kts | 281° |
| 2026-04-30 13:46 | 18.36432 | -65.01860 | 39992 ft | 413 kts | 285° |
| 2026-04-30 13:46 | 18.38581 | -65.07466 | 39992 ft | 416 kts | 290° |
| 2026-04-30 13:47 | 18.41239 | -65.12925 | 39984 ft | 418 kts | 294° |
| 2026-04-30 13:47 | 18.44092 | -65.18283 | 39980 ft | 417 kts | 293° |
| 2026-04-30 13:48 | 18.46441 | -65.23819 | 39977 ft | 411 kts | 286° |
| 2026-04-30 13:48 | 18.48021 | -65.29567 | 39974 ft | 408 kts | 279° |
| 2026-04-30 13:49 | 18.48839 | -65.35478 | 39972 ft | 406 kts | 272° |
| 2026-04-30 13:49 | 18.48931 | -65.41399 | 39972 ft | 405 kts | 268° |
| 2026-04-30 13:50 | 18.48847 | -65.47336 | 39972 ft | 406 kts | 268° |
| 2026-04-30 13:50 | 18.48689 | -65.56285 | 39973 ft | 406 kts | 268° |
| 2026-04-30 13:51 | 18.48574 | -65.62244 | 39977 ft | 406 kts | 268° |
| 2026-04-30 13:51 | 18.48458 | -65.68176 | 39976 ft | 406 kts | 268° |
| 2026-04-30 13:52 | 18.48336 | -65.74151 | 39962 ft | 407 kts | 268° |
| 2026-04-30 13:52 | 18.48233 | -65.79119 | 39982 ft | 407 kts | 267° |
| 2026-04-30 13:53 | 18.48107 | -65.85113 | 39992 ft | 407 kts | 267° |
| 2026-04-30 13:53 | 18.47980 | -65.91050 | 39995 ft | 407 kts | 267° |
| 2026-04-30 13:54 | 18.47852 | -65.97037 | 39995 ft | 407 kts | 267° |
| 2026-04-30 13:54 | 18.47720 | -66.03024 | 39995 ft | 407 kts | 267° |
| 2026-04-30 13:55 | 18.47587 | -66.08970 | 39986 ft | 407 kts | 267° |
| 2026-04-30 13:55 | 18.47452 | -66.14961 | 39975 ft | 407 kts | 267° |
| 2026-04-30 13:56 | 18.47316 | -66.20937 | 39999 ft | 407 kts | 267° |
| 2026-04-30 13:56 | 18.47179 | -66.26890 | 39999 ft | 407 kts | 267° |
| 2026-04-30 13:57 | 18.47038 | -66.32876 | 39986 ft | 407 kts | 267° |
| 2026-04-30 13:57 | 18.46895 | -66.38865 | 39987 ft | 408 kts | 267° |
| 2026-04-30 13:58 | 18.47140 | -66.47830 | 39996 ft | 409 kts | 270° |
| 2026-04-30 13:59 | 18.47401 | -66.53832 | 39988 ft | 408 kts | 270° |
| 2026-04-30 13:59 | 18.47661 | -66.59786 | 39989 ft | 409 kts | 270° |
| 2026-04-30 14:00 | 18.47924 | -66.65785 | 39986 ft | 409 kts | 270° |
| 2026-04-30 14:00 | 18.48316 | -66.74776 | 39986 ft | 409 kts | 270° |
| 2026-04-30 14:01 | 18.48576 | -66.80778 | 39983 ft | 409 kts | 270° |
| 2026-04-30 14:01 | 18.48832 | -66.86736 | 39981 ft | 409 kts | 270° |
| 2026-04-30 14:02 | 18.49088 | -66.92743 | 39984 ft | 410 kts | 270° |
| 2026-04-30 14:02 | 18.49344 | -66.98772 | 39982 ft | 411 kts | 270° |
| 2026-04-30 14:03 | 18.49596 | -67.04780 | 39981 ft | 411 kts | 270° |
| 2026-04-30 14:03 | 18.49810 | -67.10808 | 39980 ft | 410 kts | 269° |
| 2026-04-30 14:04 | 18.49722 | -67.16784 | 39980 ft | 410 kts | 267° |
| 2026-04-30 14:04 | 18.49609 | -67.22807 | 39981 ft | 410 kts | 267° |
| 2026-04-30 14:05 | 18.49492 | -67.28835 | 39981 ft | 410 kts | 267° |
| 2026-04-30 14:05 | 18.49370 | -67.34868 | 39979 ft | 410 kts | 267° |
| 2026-04-30 14:06 | 18.49184 | -67.43873 | 39978 ft | 410 kts | 267° |
| 2026-04-30 14:07 | 18.48993 | -67.52929 | 39976 ft | 411 kts | 267° |
| 2026-04-30 14:08 | 18.48800 | -67.61934 | 39974 ft | 411 kts | 267° |
| 2026-04-30 14:08 | 18.48600 | -67.70976 | 39975 ft | 411 kts | 266° |
| 2026-04-30 14:09 | 18.48466 | -67.76978 | 39976 ft | 411 kts | 266° |
| 2026-04-30 14:10 | 18.48260 | -67.86026 | 39973 ft | 411 kts | 266° |
| 2026-04-30 14:10 | 18.48121 | -67.92055 | 39976 ft | 411 kts | 266° |
| 2026-04-30 14:11 | 18.47980 | -67.98073 | 39977 ft | 411 kts | 266° |
| 2026-04-30 14:11 | 18.47837 | -68.04137 | 39978 ft | 410 kts | 266° |
| 2026-04-30 14:12 | 18.47698 | -68.10125 | 39962 ft | 410 kts | 266° |
| 2026-04-30 14:12 | 18.47557 | -68.16141 | 39957 ft | 411 kts | 266° |
| 2026-04-30 14:13 | 18.47413 | -68.22197 | 39982 ft | 411 kts | 266° |
| 2026-04-30 14:13 | 18.47269 | -68.28199 | 39971 ft | 411 kts | 266° |
| 2026-04-30 14:14 | 18.47122 | -68.34231 | 39972 ft | 411 kts | 266° |
| 2026-04-30 14:14 | 18.46973 | -68.40268 | 39970 ft | 411 kts | 266° |
| 2026-04-30 14:15 | 18.46822 | -68.46304 | 39973 ft | 411 kts | 266° |
| 2026-04-30 14:15 | 18.46670 | -68.52346 | 39970 ft | 411 kts | 266° |
| 2026-04-30 14:16 | 18.46517 | -68.58345 | 39976 ft | 412 kts | 266° |
| 2026-04-30 14:16 | 18.46360 | -68.64404 | 39983 ft | 412 kts | 266° |
| 2026-04-30 14:17 | 18.46201 | -68.70470 | 39982 ft | 412 kts | 266° |
| 2026-04-30 14:17 | 18.46041 | -68.76488 | 39972 ft | 412 kts | 266° |
| 2026-04-30 14:18 | 18.45879 | -68.82542 | 39970 ft | 412 kts | 266° |
| 2026-04-30 14:18 | 18.45633 | -68.91607 | 39975 ft | 413 kts | 266° |
| 2026-04-30 14:19 | 18.45380 | -69.00678 | 39976 ft | 413 kts | 266° |
| 2026-04-30 14:20 | 18.45210 | -69.06752 | 39975 ft | 413 kts | 266° |
| 2026-04-30 14:20 | 18.44950 | -69.15850 | 39976 ft | 413 kts | 266° |
| 2026-04-30 14:21 | 18.44777 | -69.21887 | 39978 ft | 414 kts | 266° |
| 2026-04-30 14:22 | 18.44510 | -69.30994 | 39978 ft | 414 kts | 266° |
| 2026-04-30 14:22 | 18.44239 | -69.40078 | 39979 ft | 414 kts | 266° |
| 2026-04-30 14:23 | 18.43873 | -69.52209 | 39975 ft | 414 kts | 266° |
| 2026-04-30 14:24 | 18.43593 | -69.61310 | 39978 ft | 415 kts | 266° |
| 2026-04-30 14:25 | 18.43458 | -69.73478 | 39976 ft | 415 kts | 268° |
| 2026-04-30 14:26 | 18.43498 | -69.82619 | 39978 ft | 415 kts | 268° |
| 2026-04-30 14:27 | 18.43537 | -69.91786 | 39975 ft | 417 kts | 268° |
| 2026-04-30 14:27 | 18.43647 | -69.97880 | 39977 ft | 419 kts | 270° |
| 2026-04-30 14:28 | 18.44398 | -70.07085 | 39978 ft | 419 kts | 272° |
| 2026-04-30 14:28 | 18.44927 | -70.13191 | 39980 ft | 419 kts | 272° |
| 2026-04-30 14:29 | 18.45482 | -70.24433 | 39983 ft | 418 kts | 270° |
| 2026-04-30 14:31 | 18.46166 | -70.40868 | 39977 ft | 420 kts | 270° |
| 2026-04-30 14:31 | 18.46545 | -70.50093 | 39977 ft | 421 kts | 269° |
| 2026-04-30 14:32 | 18.46919 | -70.59375 | 39961 ft | 422 kts | 270° |
| 2026-04-30 14:33 | 18.47167 | -70.65545 | 39959 ft | 423 kts | 270° |
| 2026-04-30 14:33 | 18.47535 | -70.74830 | 39955 ft | 423 kts | 270° |
| 2026-04-30 14:34 | 18.47778 | -70.81039 | 39959 ft | 423 kts | 270° |
| 2026-04-30 14:34 | 18.48020 | -70.87243 | 39956 ft | 423 kts | 270° |
| 2026-04-30 14:35 | 18.48376 | -70.96533 | 39945 ft | 424 kts | 270° |
| 2026-04-30 14:36 | 18.48614 | -71.02762 | 39943 ft | 424 kts | 270° |
| 2026-04-30 14:36 | 18.48849 | -71.08979 | 39946 ft | 424 kts | 270° |
| 2026-04-30 14:37 | 18.49081 | -71.15174 | 39948 ft | 424 kts | 270° |
| 2026-04-30 14:37 | 18.49315 | -71.21397 | 39941 ft | 424 kts | 269° |
| 2026-04-30 14:38 | 18.49543 | -71.27620 | 39951 ft | 424 kts | 269° |
| 2026-04-30 14:38 | 18.49769 | -71.33847 | 39957 ft | 424 kts | 269° |
| 2026-04-30 14:39 | 18.49992 | -71.40041 | 39943 ft | 424 kts | 269° |
| 2026-04-30 14:39 | 18.50215 | -71.46265 | 39946 ft | 424 kts | 269° |
| 2026-04-30 14:40 | 18.50545 | -71.55594 | 39959 ft | 424 kts | 269° |
| 2026-04-30 14:40 | 18.50762 | -71.61820 | 39971 ft | 425 kts | 270° |
| 2026-04-30 14:41 | 18.50980 | -71.68055 | 39961 ft | 425 kts | 270° |
| 2026-04-30 14:41 | 18.51159 | -71.73234 | 39960 ft | 425 kts | 270° |
| 2026-04-30 14:42 | 18.51373 | -71.79469 | 39964 ft | 425 kts | 269° |
| 2026-04-30 14:42 | 18.51596 | -71.85703 | 39958 ft | 425 kts | 270° |
| 2026-04-30 14:43 | 18.52199 | -71.91931 | 39964 ft | 428 kts | 275° |
| 2026-04-30 14:43 | 18.53072 | -71.98144 | 39958 ft | 428 kts | 276° |
| 2026-04-30 14:44 | 18.53958 | -72.04365 | 39956 ft | 427 kts | 276° |
| 2026-04-30 14:44 | 18.54842 | -72.10570 | 39957 ft | 428 kts | 276° |
| 2026-04-30 14:45 | 18.55725 | -72.16780 | 39954 ft | 428 kts | 276° |
| 2026-04-30 14:45 | 18.56562 | -72.22957 | 39953 ft | 427 kts | 274° |
| 2026-04-30 14:46 | 18.56948 | -72.29206 | 39954 ft | 426 kts | 269° |
| 2026-04-30 14:46 | 18.56782 | -72.35454 | 39953 ft | 425 kts | 264° |
| 2026-04-30 14:47 | 18.56096 | -72.41629 | 39955 ft | 425 kts | 261° |
| 2026-04-30 14:47 | 18.55271 | -72.47810 | 39953 ft | 425 kts | 261° |
| 2026-04-30 14:48 | 18.54441 | -72.53951 | 39951 ft | 425 kts | 261° |
| 2026-04-30 14:48 | 18.53599 | -72.60123 | 39953 ft | 425 kts | 261° |
| 2026-04-30 14:49 | 18.52751 | -72.66308 | 39955 ft | 426 kts | 261° |
| 2026-04-30 14:49 | 18.51900 | -72.72512 | 39957 ft | 426 kts | 261° |
| 2026-04-30 14:50 | 18.50627 | -72.81762 | 39964 ft | 426 kts | 261° |
| 2026-04-30 14:51 | 18.49342 | -72.91044 | 39966 ft | 426 kts | 261° |
| 2026-04-30 14:52 | 18.48083 | -73.00338 | 39976 ft | 427 kts | 261° |
| 2026-04-30 14:52 | 18.46833 | -73.09612 | 39976 ft | 428 kts | 261° |
| 2026-04-30 14:53 | 18.45568 | -73.18951 | 39975 ft | 428 kts | 261° |
| 2026-04-30 14:54 | 18.43880 | -73.31358 | 39972 ft | 428 kts | 261° |
| 2026-04-30 14:55 | 18.42598 | -73.40733 | 39976 ft | 431 kts | 262° |
| 2026-04-30 14:56 | 18.40880 | -73.53255 | 39976 ft | 431 kts | 261° |
| 2026-04-30 14:57 | 18.39593 | -73.62601 | 39958 ft | 430 kts | 261° |
| 2026-04-30 14:58 | 18.37870 | -73.75044 | 39982 ft | 429 kts | 261° |
| 2026-04-30 14:58 | 18.36571 | -73.84382 | 39984 ft | 429 kts | 261° |
| 2026-04-30 15:00 | 18.34397 | -73.99952 | 39983 ft | 429 kts | 261° |
| 2026-04-30 15:01 | 18.32644 | -74.12428 | 39984 ft | 432 kts | 261° |
| 2026-04-30 15:01 | 18.31316 | -74.21848 | 39974 ft | 432 kts | 261° |
| 2026-04-30 15:02 | 18.30434 | -74.28083 | 39973 ft | 432 kts | 261° |
| 2026-04-30 15:03 | 18.28201 | -74.43807 | 39968 ft | 435 kts | 261° |
| 2026-04-30 15:04 | 18.26115 | -74.59595 | 39965 ft | 436 kts | 265° |
| 2026-04-30 15:06 | 18.26745 | -74.75524 | 39962 ft | 438 kts | 278° |
| 2026-04-30 15:07 | 18.29012 | -74.88166 | 39962 ft | 438 kts | 279° |
| 2026-04-30 15:08 | 18.31315 | -75.00782 | 39962 ft | 438 kts | 279° |
| 2026-04-30 15:09 | 18.34164 | -75.16556 | 39962 ft | 440 kts | 279° |
| 2026-04-30 15:10 | 18.36450 | -75.29240 | 39962 ft | 440 kts | 279° |
| 2026-04-30 15:11 | 18.39857 | -75.48240 | 39963 ft | 441 kts | 279° |
| 2026-04-30 15:13 | 18.42687 | -75.64096 | 39963 ft | 441 kts | 279° |
| 2026-04-30 15:14 | 18.46642 | -75.86401 | 39964 ft | 442 kts | 279° |
| 2026-04-30 15:17 | 18.51693 | -76.15094 | 39962 ft | 442 kts | 279° |
| 2026-04-30 15:19 | 18.56135 | -76.40633 | 39955 ft | 443 kts | 279° |
| 2026-04-30 17:39 | 21.04306 | -86.88038 | 38 ft | 0 kts | 124° |